sensor_id;sensor_type;location;lat;lon;timestamp;pressure;altitude;pressure_sealevel;temperature;humidity
75063;BME280;63981;51.052;13.754;2023-03-01T00:01:31;101826.47;;;-3.65;83.92
75063;BME280;63981;51.052;13.754;2023-03-01T00:03:58;101885.44;;;-3.35;84.62
75063;BME280;63981;51.052;13.754;2023-03-01T00:06:25;101869.66;;;-3.52;84.85
75063;BME280;63981;51.052;13.754;2023-03-01T00:08:51;101891.34;;;-3.41;84.83
75063;BME280;63981;51.052;13.754;2023-03-01T00:11:29;101885.72;;;-3.18;84.80
75063;BME280;63981;51.052;13.754;2023-03-01T00:13:57;101888.50;;;-3.06;85.56
75063;BME280;63981;51.052;13.754;2023-03-01T00:16:26;101804.97;;;-3.67;84.59
75063;BME280;63981;51.052;13.754;2023-03-01T00:18:56;101867.25;;;-3.43;84.77
75063;BME280;63981;51.052;13.754;2023-03-01T00:21:23;101883.91;;;-3.25;85.58
75063;BME280;63981;51.052;13.754;2023-03-01T00:23:49;101884.88;;;-3.17;85.58
75063;BME280;63981;51.052;13.754;2023-03-01T00:26:16;101900.50;;;-3.08;85.84
75063;BME280;63981;51.052;13.754;2023-03-01T00:28:44;101878.91;;;-3.13;85.39
75063;BME280;63981;51.052;13.754;2023-03-01T00:31:19;101861.41;;;-3.34;86.17
75063;BME280;63981;51.052;13.754;2023-03-01T00:33:45;101886.59;;;-3.18;86.24
75063;BME280;63981;51.052;13.754;2023-03-01T00:36:13;101881.31;;;-3.25;86.11
75063;BME280;63981;51.052;13.754;2023-03-01T00:38:44;101886.44;;;-3.27;86.35
75063;BME280;63981;51.052;13.754;2023-03-01T00:41:15;101872.53;;;-3.37;86.49
75063;BME280;63981;51.052;13.754;2023-03-01T00:43:41;101871.88;;;-3.25;86.72
75063;BME280;63981;51.052;13.754;2023-03-01T00:46:18;101837.09;;;-3.48;86.32
75063;BME280;63981;51.052;13.754;2023-03-01T00:48:44;101843.16;;;-3.46;86.67
75063;BME280;63981;51.052;13.754;2023-03-01T00:51:14;101791.22;;;-3.68;86.21
75063;BME280;63981;51.052;13.754;2023-03-01T00:53:41;101714.66;;;-4.26;86.05
75063;BME280;63981;51.052;13.754;2023-03-01T00:56:12;101809.88;;;-3.81;86.11
75063;BME280;63981;51.052;13.754;2023-03-01T00:58:38;101834.88;;;-3.77;85.97
75063;BME280;63981;51.052;13.754;2023-03-01T01:01:18;101840.31;;;-3.62;86.20
75063;BME280;63981;51.052;13.754;2023-03-01T01:03:51;101863.00;;;-3.41;86.06
75063;BME280;63981;51.052;13.754;2023-03-01T01:06:25;101855.91;;;-3.52;86.19
75063;BME280;63981;51.052;13.754;2023-03-01T01:08:53;101859.25;;;-3.58;86.28
75063;BME280;63981;51.052;13.754;2023-03-01T01:11:20;101847.19;;;-3.61;86.45
75063;BME280;63981;51.052;13.754;2023-03-01T01:13:47;101865.06;;;-3.70;86.40
75063;BME280;63981;51.052;13.754;2023-03-01T01:16:15;101859.22;;;-3.61;87.04
75063;BME280;63981;51.052;13.754;2023-03-01T01:18:41;101773.97;;;-4.20;86.99
75063;BME280;63981;51.052;13.754;2023-03-01T01:21:14;101860.66;;;-3.77;87.08
75063;BME280;63981;51.052;13.754;2023-03-01T01:23:41;101808.56;;;-4.06;86.01
75063;BME280;63981;51.052;13.754;2023-03-01T01:26:10;101812.25;;;-3.92;86.92
75063;BME280;63981;51.052;13.754;2023-03-01T01:28:36;101851.88;;;-3.87;86.82
75063;BME280;63981;51.052;13.754;2023-03-01T01:31:03;101855.31;;;-3.86;87.07
75063;BME280;63981;51.052;13.754;2023-03-01T01:33:29;101839.69;;;-3.94;86.09
75063;BME280;63981;51.052;13.754;2023-03-01T01:35:55;101767.94;;;-4.22;86.34
75063;BME280;63981;51.052;13.754;2023-03-01T01:38:20;101843.53;;;-3.73;87.39
75063;BME280;63981;51.052;13.754;2023-03-01T01:40:47;101828.88;;;-3.77;86.61
75063;BME280;63981;51.052;13.754;2023-03-01T01:43:25;101731.66;;;-4.34;86.44
75063;BME280;63981;51.052;13.754;2023-03-01T01:45:59;101769.59;;;-4.26;86.79
75063;BME280;63981;51.052;13.754;2023-03-01T01:48:39;101835.50;;;-3.90;86.91
75063;BME280;63981;51.052;13.754;2023-03-01T01:51:09;101845.94;;;-3.82;87.25
75063;BME280;63981;51.052;13.754;2023-03-01T01:53:36;101837.31;;;-3.84;87.73
75063;BME280;63981;51.052;13.754;2023-03-01T01:56:06;101758.25;;;-4.35;86.84
75063;BME280;63981;51.052;13.754;2023-03-01T01:58:32;101839.66;;;-3.97;86.32
75063;BME280;63981;51.052;13.754;2023-03-01T02:00:58;101835.22;;;-4.04;86.07
75063;BME280;63981;51.052;13.754;2023-03-01T02:03:30;101836.19;;;-3.99;87.06
75063;BME280;63981;51.052;13.754;2023-03-01T02:06:06;101831.91;;;-3.98;87.68
75063;BME280;63981;51.052;13.754;2023-03-01T02:08:38;101805.28;;;-3.99;87.15
75063;BME280;63981;51.052;13.754;2023-03-01T02:11:07;101825.38;;;-3.79;87.21
75063;BME280;63981;51.052;13.754;2023-03-01T02:13:35;101737.09;;;-4.19;86.69
75063;BME280;63981;51.052;13.754;2023-03-01T02:16:05;101722.53;;;-4.17;85.87
75063;BME280;63981;51.052;13.754;2023-03-01T02:18:33;101824.19;;;-3.51;86.08
75063;BME280;63981;51.052;13.754;2023-03-01T02:23:39;101817.38;;;-3.95;87.15
75063;BME280;63981;51.052;13.754;2023-03-01T02:29:00;101810.19;;;-4.11;87.60
75063;BME280;63981;51.052;13.754;2023-03-01T02:31:26;101738.19;;;-4.52;86.85
75063;BME280;63981;51.052;13.754;2023-03-01T02:34:17;101748.34;;;-4.58;86.93
75063;BME280;63981;51.052;13.754;2023-03-01T02:36:48;101769.19;;;-4.46;88.53
75063;BME280;63981;51.052;13.754;2023-03-01T02:39:18;101803.97;;;-4.22;88.10
75063;BME280;63981;51.052;13.754;2023-03-01T02:41:48;101808.91;;;-4.33;87.11
75063;BME280;63981;51.052;13.754;2023-03-01T02:44:15;101803.06;;;-4.26;88.10
75063;BME280;63981;51.052;13.754;2023-03-01T02:46:48;101805.47;;;-4.33;87.35
75063;BME280;63981;51.052;13.754;2023-03-01T02:49:30;101816.63;;;-4.33;87.92
75063;BME280;63981;51.052;13.754;2023-03-01T02:55:13;101797.56;;;-4.42;87.21
75063;BME280;63981;51.052;13.754;2023-03-01T02:57:43;101794.84;;;-4.50;87.26
75063;BME280;63981;51.052;13.754;2023-03-01T03:00:13;101751.38;;;-4.79;88.49
75063;BME280;63981;51.052;13.754;2023-03-01T03:02:52;101642.00;;;-5.46;87.84
75063;BME280;63981;51.052;13.754;2023-03-01T03:05:25;101269.09;;;-7.78;86.87
75063;BME280;63981;51.052;13.754;2023-03-01T03:07:55;101614.16;;;-5.65;88.16
75063;BME280;63981;51.052;13.754;2023-03-01T03:10:25;101775.97;;;-4.51;88.00
75063;BME280;63981;51.052;13.754;2023-03-01T03:12:57;101793.06;;;-4.53;87.23
75063;BME280;63981;51.052;13.754;2023-03-01T03:15:25;101690.53;;;-5.19;87.46
75063;BME280;63981;51.052;13.754;2023-03-01T03:17:52;101785.38;;;-4.51;87.85
75063;BME280;63981;51.052;13.754;2023-03-01T03:20:20;101795.66;;;-4.53;88.42
75063;BME280;63981;51.052;13.754;2023-03-01T03:22:48;101793.81;;;-4.57;87.99
75063;BME280;63981;51.052;13.754;2023-03-01T03:25:16;101779.84;;;-4.69;87.82
75063;BME280;63981;51.052;13.754;2023-03-01T03:27:44;101763.34;;;-4.81;87.11
75063;BME280;63981;51.052;13.754;2023-03-01T03:30:16;101785.78;;;-4.72;87.38
75063;BME280;63981;51.052;13.754;2023-03-01T03:32:45;101723.59;;;-4.95;87.57
75063;BME280;63981;51.052;13.754;2023-03-01T03:35:20;101782.78;;;-4.53;88.24
75063;BME280;63981;51.052;13.754;2023-03-01T03:37:54;101778.63;;;-4.45;86.96
75063;BME280;63981;51.052;13.754;2023-03-01T03:42:57;101692.63;;;-5.01;87.12
75063;BME280;63981;51.052;13.754;2023-03-01T03:45:23;101757.56;;;-4.69;87.01
75063;BME280;63981;51.052;13.754;2023-03-01T03:47:49;101770.72;;;-4.55;87.61
75063;BME280;63981;51.052;13.754;2023-03-01T03:50:16;101747.75;;;-4.87;87.50
75063;BME280;63981;51.052;13.754;2023-03-01T03:52:42;101766.13;;;-4.70;87.63
75063;BME280;63981;51.052;13.754;2023-03-01T03:55:10;101758.47;;;-4.68;87.21
75063;BME280;63981;51.052;13.754;2023-03-01T03:57:40;101770.66;;;-4.58;86.84
75063;BME280;63981;51.052;13.754;2023-03-01T04:00:08;101785.34;;;-4.54;87.63
75063;BME280;63981;51.052;13.754;2023-03-01T04:02:42;101777.59;;;-4.56;87.46
75063;BME280;63981;51.052;13.754;2023-03-01T04:05:11;101776.63;;;-4.59;87.17
75063;BME280;63981;51.052;13.754;2023-03-01T04:07:37;101760.72;;;-4.82;87.88
75063;BME280;63981;51.052;13.754;2023-03-01T04:10:04;101789.25;;;-4.70;87.95
75063;BME280;63981;51.052;13.754;2023-03-01T04:12:31;101792.78;;;-4.66;87.51
75063;BME280;63981;51.052;13.754;2023-03-01T04:15:00;101719.84;;;-5.09;87.23
75063;BME280;63981;51.052;13.754;2023-03-01T04:17:26;101742.41;;;-4.96;87.63
75063;BME280;63981;51.052;13.754;2023-03-01T04:19:52;101778.50;;;-4.93;87.97
75063;BME280;63981;51.052;13.754;2023-03-01T04:22:18;101783.69;;;-4.91;87.54
75063;BME280;63981;51.052;13.754;2023-03-01T04:24:44;101724.81;;;-5.18;87.66
75063;BME280;63981;51.052;13.754;2023-03-01T04:27:10;101771.47;;;-4.59;87.86
75063;BME280;63981;51.052;13.754;2023-03-01T04:29:36;101737.84;;;-5.09;87.74
75063;BME280;63981;51.052;13.754;2023-03-01T04:32:02;101777.25;;;-5.10;87.08
75063;BME280;63981;51.052;13.754;2023-03-01T04:34:29;101726.25;;;-5.31;87.32
75063;BME280;63981;51.052;13.754;2023-03-01T04:36:55;101688.13;;;-5.49;88.03
75063;BME280;63981;51.052;13.754;2023-03-01T04:39:21;101728.78;;;-5.32;87.74
75063;BME280;63981;51.052;13.754;2023-03-01T04:41:47;101776.34;;;-5.12;87.53
75063;BME280;63981;51.052;13.754;2023-03-01T04:44:13;101782.34;;;-5.12;87.79
75063;BME280;63981;51.052;13.754;2023-03-01T04:46:38;101706.56;;;-5.30;88.87
75063;BME280;63981;51.052;13.754;2023-03-01T04:49:04;101766.56;;;-4.89;88.77
75063;BME280;63981;51.052;13.754;2023-03-01T04:51:30;101774.22;;;-4.92;89.32
75063;BME280;63981;51.052;13.754;2023-03-01T04:53:58;101775.81;;;-4.97;88.99
75063;BME280;63981;51.052;13.754;2023-03-01T04:56:24;101782.53;;;-5.04;89.16
75063;BME280;63981;51.052;13.754;2023-03-01T04:58:53;101784.13;;;-5.09;88.59
75063;BME280;63981;51.052;13.754;2023-03-01T05:01:20;101705.19;;;-5.52;87.99
75063;BME280;63981;51.052;13.754;2023-03-01T05:03:48;101779.66;;;-4.79;87.52
75063;BME280;63981;51.052;13.754;2023-03-01T05:06:15;101701.94;;;-5.45;88.21
75063;BME280;63981;51.052;13.754;2023-03-01T05:08:42;101769.09;;;-4.92;88.03
75063;BME280;63981;51.052;13.754;2023-03-01T05:11:08;101781.13;;;-4.90;87.36
75063;BME280;63981;51.052;13.754;2023-03-01T05:13:36;101775.47;;;-5.13;88.38
75063;BME280;63981;51.052;13.754;2023-03-01T05:16:03;101780.53;;;-5.17;88.54
75063;BME280;63981;51.052;13.754;2023-03-01T05:18:33;101774.53;;;-5.18;88.50
75063;BME280;63981;51.052;13.754;2023-03-01T05:21:06;101772.97;;;-5.10;88.22
75063;BME280;63981;51.052;13.754;2023-03-01T05:23:33;101772.81;;;-5.17;88.33
75063;BME280;63981;51.052;13.754;2023-03-01T05:26:00;101701.66;;;-5.57;88.20
75063;BME280;63981;51.052;13.754;2023-03-01T05:28:27;101727.34;;;-4.81;86.69
75063;BME280;63981;51.052;13.754;2023-03-01T05:30:54;101769.22;;;-4.44;86.21
75063;BME280;63981;51.052;13.754;2023-03-01T05:33:20;101761.69;;;-4.35;86.43
75063;BME280;63981;51.052;13.754;2023-03-01T05:35:48;101762.50;;;-4.80;86.92
75063;BME280;63981;51.052;13.754;2023-03-01T05:38:14;101728.84;;;-4.90;86.95
75063;BME280;63981;51.052;13.754;2023-03-01T05:40:41;101759.84;;;-4.83;86.10
75063;BME280;63981;51.052;13.754;2023-03-01T05:43:07;101756.53;;;-4.79;86.20
75063;BME280;63981;51.052;13.754;2023-03-01T05:45:36;101673.88;;;-5.36;86.60
75063;BME280;63981;51.052;13.754;2023-03-01T05:48:02;101754.13;;;-4.27;85.72
75063;BME280;63981;51.052;13.754;2023-03-01T05:50:29;101755.59;;;-3.93;84.47
75063;BME280;63981;51.052;13.754;2023-03-01T05:53:04;101755.66;;;-4.37;85.32
75063;BME280;63981;51.052;13.754;2023-03-01T05:55:33;101714.41;;;-4.82;85.89
75063;BME280;63981;51.052;13.754;2023-03-01T05:58:02;101724.53;;;-4.91;85.47
75063;BME280;63981;51.052;13.754;2023-03-01T06:00:29;101719.72;;;-5.17;86.68
75063;BME280;63981;51.052;13.754;2023-03-01T06:02:56;101768.91;;;-5.00;87.18
75063;BME280;63981;51.052;13.754;2023-03-01T06:05:22;101772.91;;;-5.13;87.02
75063;BME280;63981;51.052;13.754;2023-03-01T06:07:48;101770.38;;;-5.11;87.49
75063;BME280;63981;51.052;13.754;2023-03-01T06:10:16;101777.22;;;-5.12;87.04
75063;BME280;63981;51.052;13.754;2023-03-01T06:12:42;101773.72;;;-4.76;86.80
75063;BME280;63981;51.052;13.754;2023-03-01T06:15:13;101742.25;;;-4.64;85.98
75063;BME280;63981;51.052;13.754;2023-03-01T06:17:41;101771.97;;;-4.77;85.41
75063;BME280;63981;51.052;13.754;2023-03-01T06:20:16;101768.41;;;-4.84;85.93
75063;BME280;63981;51.052;13.754;2023-03-01T06:22:43;101772.28;;;-4.63;86.54
75063;BME280;63981;51.052;13.754;2023-03-01T06:25:11;101701.25;;;-4.97;86.05
75063;BME280;63981;51.052;13.754;2023-03-01T06:27:38;101747.22;;;-4.72;85.33
75063;BME280;63981;51.052;13.754;2023-03-01T06:30:04;101739.25;;;-4.84;85.47
75063;BME280;63981;51.052;13.754;2023-03-01T06:32:30;101801.41;;;-4.64;86.12
75063;BME280;63981;51.052;13.754;2023-03-01T06:34:57;101680.88;;;-5.29;86.26
75063;BME280;63981;51.052;13.754;2023-03-01T06:37:25;101788.44;;;-4.69;85.80
75063;BME280;63981;51.052;13.754;2023-03-01T06:39:50;101788.50;;;-4.66;86.43
75063;BME280;63981;51.052;13.754;2023-03-01T06:42:16;101787.78;;;-4.59;86.05
75063;BME280;63981;51.052;13.754;2023-03-01T06:44:42;101712.81;;;-5.19;85.56
75063;BME280;63981;51.052;13.754;2023-03-01T06:47:08;101785.94;;;-4.66;86.07
75063;BME280;63981;51.052;13.754;2023-03-01T06:49:33;101672.34;;;-5.28;85.29
75063;BME280;63981;51.052;13.754;2023-03-01T06:51:59;101759.09;;;-4.79;84.36
75063;BME280;63981;51.052;13.754;2023-03-01T06:54:25;101690.09;;;-5.39;85.33
75063;BME280;63981;51.052;13.754;2023-03-01T06:56:51;101790.66;;;-4.86;86.13
75063;BME280;63981;51.052;13.754;2023-03-01T06:59:17;101783.91;;;-4.81;86.13
75063;BME280;63981;51.052;13.754;2023-03-01T07:01:42;101754.31;;;-4.60;84.89
75063;BME280;63981;51.052;13.754;2023-03-01T07:04:10;101718.22;;;-5.07;86.05
75063;BME280;63981;51.052;13.754;2023-03-01T07:06:36;101681.78;;;-5.27;85.51
75063;BME280;63981;51.052;13.754;2023-03-01T07:09:02;101768.19;;;-4.54;86.28
75063;BME280;63981;51.052;13.754;2023-03-01T07:11:27;101763.28;;;-4.41;85.03
75063;BME280;63981;51.052;13.754;2023-03-01T07:13:53;101723.25;;;-4.26;85.22
75063;BME280;63981;51.052;13.754;2023-03-01T07:16:19;101757.41;;;-3.88;84.44
75063;BME280;63981;51.052;13.754;2023-03-01T07:18:45;101738.81;;;-4.18;83.83
75063;BME280;63981;51.052;13.754;2023-03-01T07:21:13;101778.88;;;-3.87;83.84
75063;BME280;63981;51.052;13.754;2023-03-01T07:23:39;101773.72;;;-3.89;84.17
75063;BME280;63981;51.052;13.754;2023-03-01T07:26:05;101718.81;;;-3.86;82.91
75063;BME280;63981;51.052;13.754;2023-03-01T07:28:31;101756.38;;;-3.47;82.67
75063;BME280;63981;51.052;13.754;2023-03-01T07:31:02;101764.06;;;-3.49;83.13
75063;BME280;63981;51.052;13.754;2023-03-01T07:33:28;101733.25;;;-3.40;82.40
75063;BME280;63981;51.052;13.754;2023-03-01T07:35:59;101750.94;;;-3.07;81.87
75063;BME280;63981;51.052;13.754;2023-03-01T07:38:25;101745.97;;;-2.93;81.17
75063;BME280;63981;51.052;13.754;2023-03-01T07:40:51;101751.78;;;-2.43;80.03
75063;BME280;63981;51.052;13.754;2023-03-01T07:43:16;101658.94;;;-2.32;76.41
75063;BME280;63981;51.052;13.754;2023-03-01T07:45:42;101736.47;;;-1.20;74.41
75063;BME280;63981;51.052;13.754;2023-03-01T07:48:08;101737.75;;;-0.29;72.65
75063;BME280;63981;51.052;13.754;2023-03-01T07:50:34;101737.72;;;-0.50;70.78
75063;BME280;63981;51.052;13.754;2023-03-01T07:52:59;101739.59;;;0.53;67.79
75063;BME280;63981;51.052;13.754;2023-03-01T07:55:25;101627.97;;;0.79;65.68
75063;BME280;63981;51.052;13.754;2023-03-01T07:57:51;101726.53;;;2.50;61.78
75063;BME280;63981;51.052;13.754;2023-03-01T08:00:17;101721.13;;;1.51;64.31
75063;BME280;63981;51.052;13.754;2023-03-01T08:02:43;101685.13;;;3.07;62.64
75063;BME280;63981;51.052;13.754;2023-03-01T08:05:09;101705.50;;;2.69;58.45
75063;BME280;63981;51.052;13.754;2023-03-01T08:07:35;101684.53;;;4.62;58.38
75063;BME280;63981;51.052;13.754;2023-03-01T08:10:01;101680.16;;;5.09;57.37
75063;BME280;63981;51.052;13.754;2023-03-01T08:12:26;101668.88;;;2.85;57.03
75063;BME280;63981;51.052;13.754;2023-03-01T08:14:54;101672.00;;;5.24;55.33
75063;BME280;63981;51.052;13.754;2023-03-01T08:17:19;101631.91;;;5.64;50.33
75063;BME280;63981;51.052;13.754;2023-03-01T08:19:45;101641.22;;;4.97;49.66
75063;BME280;63981;51.052;13.754;2023-03-01T08:22:11;101678.19;;;5.19;51.91
75063;BME280;63981;51.052;13.754;2023-03-01T08:24:38;101666.91;;;5.57;50.66
75063;BME280;63981;51.052;13.754;2023-03-01T08:27:04;101665.63;;;5.38;50.25
75063;BME280;63981;51.052;13.754;2023-03-01T08:29:33;101673.84;;;5.98;50.28
75063;BME280;63981;51.052;13.754;2023-03-01T08:31:59;101620.44;;;3.97;52.16
75063;BME280;63981;51.052;13.754;2023-03-01T08:34:25;101652.66;;;5.70;49.67
75063;BME280;63981;51.052;13.754;2023-03-01T08:36:51;101610.91;;;3.94;51.89
75063;BME280;63981;51.052;13.754;2023-03-01T08:39:19;101631.84;;;3.88;52.76
75063;BME280;63981;51.052;13.754;2023-03-01T08:41:45;101678.78;;;4.43;52.66
75063;BME280;63981;51.052;13.754;2023-03-01T08:44:12;101687.00;;;3.65;55.16
75063;BME280;63981;51.052;13.754;2023-03-01T08:46:40;101656.94;;;2.66;54.74
75063;BME280;63981;51.052;13.754;2023-03-01T08:49:14;101666.19;;;4.18;52.57
75063;BME280;63981;51.052;13.754;2023-03-01T08:51:41;101673.19;;;4.14;53.22
75063;BME280;63981;51.052;13.754;2023-03-01T08:54:11;101674.56;;;2.41;55.13
75063;BME280;63981;51.052;13.754;2023-03-01T08:56:38;101663.66;;;1.93;56.82
75063;BME280;63981;51.052;13.754;2023-03-01T08:59:04;101671.78;;;3.93;55.45
75063;BME280;63981;51.052;13.754;2023-03-01T09:01:30;101576.72;;;3.57;53.85
75063;BME280;63981;51.052;13.754;2023-03-01T09:03:56;101666.06;;;5.16;51.74
75063;BME280;63981;51.052;13.754;2023-03-01T09:06:21;101653.75;;;6.34;48.83
75063;BME280;63981;51.052;13.754;2023-03-01T09:08:48;101631.28;;;5.91;47.92
75063;BME280;63981;51.052;13.754;2023-03-01T09:11:17;101657.63;;;5.44;50.42
75063;BME280;63981;51.052;13.754;2023-03-01T09:13:44;101648.47;;;5.24;49.26
75063;BME280;63981;51.052;13.754;2023-03-01T09:16:12;101635.00;;;6.51;47.06
75063;BME280;63981;51.052;13.754;2023-03-01T09:18:38;101600.38;;;6.40;47.64
75063;BME280;63981;51.052;13.754;2023-03-01T09:21:15;101587.69;;;6.23;47.53
75063;BME280;63981;51.052;13.754;2023-03-01T09:23:43;101630.41;;;4.70;49.38
75063;BME280;63981;51.052;13.754;2023-03-01T09:26:13;101622.06;;;4.52;51.26
75063;BME280;63981;51.052;13.754;2023-03-01T09:28:42;101492.44;;;5.26;48.19
75063;BME280;63981;51.052;13.754;2023-03-01T09:31:09;101623.81;;;4.96;48.88
75063;BME280;63981;51.052;13.754;2023-03-01T09:33:38;101611.63;;;5.72;48.12
75063;BME280;63981;51.052;13.754;2023-03-01T09:36:06;101605.78;;;5.98;48.62
75063;BME280;63981;51.052;13.754;2023-03-01T09:38:32;101605.47;;;6.75;48.15
75063;BME280;63981;51.052;13.754;2023-03-01T09:40:59;101607.78;;;7.45;45.67
75063;BME280;63981;51.052;13.754;2023-03-01T09:46:09;101607.28;;;7.88;44.30
75063;BME280;63981;51.052;13.754;2023-03-01T09:48:43;101593.94;;;9.18;41.87
75063;BME280;63981;51.052;13.754;2023-03-01T09:51:19;101584.16;;;10.29;38.58
75063;BME280;63981;51.052;13.754;2023-03-01T09:53:49;101552.72;;;8.95;39.32
75063;BME280;63981;51.052;13.754;2023-03-01T09:56:21;101489.81;;;7.42;42.30
75063;BME280;63981;51.052;13.754;2023-03-01T10:07:53;101580.06;;;10.81;35.55
75063;BME280;63981;51.052;13.754;2023-03-01T10:10:31;101567.94;;;13.68;32.64
75063;BME280;63981;51.052;13.754;2023-03-01T10:13:02;101568.81;;;13.21;32.67
75063;BME280;63981;51.052;13.754;2023-03-01T10:15:44;101588.59;;;11.43;35.52
75063;BME280;63981;51.052;13.754;2023-03-01T10:18:17;101587.41;;;11.12;36.95
75063;BME280;63981;51.052;13.754;2023-03-01T10:23:11;101583.75;;;10.77;36.97
75063;BME280;63981;51.052;13.754;2023-03-01T10:26:06;101580.28;;;12.56;34.16
75063;BME280;63981;51.052;13.754;2023-03-01T10:28:49;101569.56;;;13.08;33.00
75063;BME280;63981;51.052;13.754;2023-03-01T10:31:20;101566.75;;;13.58;32.62
75063;BME280;63981;51.052;13.754;2023-03-01T10:33:48;101539.97;;;12.84;32.33
75063;BME280;63981;51.052;13.754;2023-03-01T10:36:17;101550.91;;;12.78;32.25
75063;BME280;63981;51.052;13.754;2023-03-01T10:38:54;101553.63;;;15.70;28.05
75063;BME280;63981;51.052;13.754;2023-03-01T10:41:21;101530.72;;;18.94;24.88
75063;BME280;63981;51.052;13.754;2023-03-01T10:43:51;101524.34;;;20.65;23.38
75063;BME280;63981;51.052;13.754;2023-03-01T10:46:34;101527.69;;;21.47;21.53
75063;BME280;63981;51.052;13.754;2023-03-01T10:51:42;101506.38;;;24.12;19.15
75063;BME280;63981;51.052;13.754;2023-03-01T10:56:49;101507.63;;;25.77;17.19
75063;BME280;63981;51.052;13.754;2023-03-01T10:59:36;101515.53;;;23.58;18.96
75063;BME280;63981;51.052;13.754;2023-03-01T11:02:16;101501.91;;;22.97;18.20
75063;BME280;63981;51.052;13.754;2023-03-01T11:07:29;101522.81;;;19.04;20.58
75063;BME280;63981;51.052;13.754;2023-03-01T11:09:55;101486.66;;;25.31;17.33
75063;BME280;63981;51.052;13.754;2023-03-01T11:12:21;101494.56;;;22.24;18.47
75063;BME280;63981;51.052;13.754;2023-03-01T11:14:53;101444.81;;;23.74;17.67
75063;BME280;63981;51.052;13.754;2023-03-01T11:17:30;101464.25;;;24.80;15.99
75063;BME280;63981;51.052;13.754;2023-03-01T11:20:23;101472.47;;;26.73;14.31
75063;BME280;63981;51.052;13.754;2023-03-01T11:22:53;101469.19;;;26.86;14.50
75063;BME280;63981;51.052;13.754;2023-03-01T11:25:24;101468.41;;;29.81;12.99
75063;BME280;63981;51.052;13.754;2023-03-01T11:27:51;101468.00;;;28.33;13.23
75063;BME280;63981;51.052;13.754;2023-03-01T11:30:26;101480.50;;;26.51;13.71
75063;BME280;63981;51.052;13.754;2023-03-01T11:36:01;101473.06;;;29.59;12.69
75063;BME280;63981;51.052;13.754;2023-03-01T11:38:31;101463.53;;;28.55;12.59
75063;BME280;63981;51.052;13.754;2023-03-01T11:41:14;101467.34;;;30.03;11.51
75063;BME280;63981;51.052;13.754;2023-03-01T11:43:53;101466.44;;;28.53;12.62
75063;BME280;63981;51.052;13.754;2023-03-01T11:55:16;101464.69;;;26.23;14.68
75063;BME280;63981;51.052;13.754;2023-03-01T11:58:03;101457.38;;;29.82;10.82
75063;BME280;63981;51.052;13.754;2023-03-01T12:00:41;101431.78;;;27.81;12.45
75063;BME280;63981;51.052;13.754;2023-03-01T12:05:56;101431.47;;;22.93;15.04
75063;BME280;63981;51.052;13.754;2023-03-01T12:08:49;101457.63;;;25.16;13.25
75063;BME280;63981;51.052;13.754;2023-03-01T12:22:29;101436.44;;;27.04;12.34
75063;BME280;63981;51.052;13.754;2023-03-01T12:25:38;101455.53;;;21.64;15.52
75063;BME280;63981;51.052;13.754;2023-03-01T12:28:02;101443.25;;;22.27;15.96
75063;BME280;63981;51.052;13.754;2023-03-01T12:38:47;101460.53;;;13.91;24.64
75063;BME280;63981;51.052;13.754;2023-03-01T12:44:05;101445.34;;;14.52;24.19
75063;BME280;63981;51.052;13.754;2023-03-01T12:49:45;101459.94;;;11.46;29.29
75063;BME280;63981;51.052;13.754;2023-03-01T12:54:53;101453.34;;;12.23;28.31
75063;BME280;63981;51.052;13.754;2023-03-01T13:02:49;101435.06;;;13.30;28.20
75063;BME280;63981;51.052;13.754;2023-03-01T13:10:33;101410.28;;;13.90;27.30
75063;BME280;63981;51.052;13.754;2023-03-01T13:13:08;101387.41;;;15.52;24.77
75063;BME280;63981;51.052;13.754;2023-03-01T13:15:37;101400.16;;;10.37;30.80
75063;BME280;63981;51.052;13.754;2023-03-01T13:20:52;101407.06;;;16.26;23.45
75063;BME280;63981;51.052;13.754;2023-03-01T13:26:17;101408.47;;;17.39;21.82
75063;BME280;63981;51.052;13.754;2023-03-01T13:28:50;101412.50;;;17.45;20.37
75063;BME280;63981;51.052;13.754;2023-03-01T13:33:43;101411.63;;;17.45;21.43
75063;BME280;63981;51.052;13.754;2023-03-01T13:36:10;101356.53;;;20.64;18.21
75063;BME280;63981;51.052;13.754;2023-03-01T13:41:13;101365.34;;;21.81;17.40
75063;BME280;63981;51.052;13.754;2023-03-01T13:43:41;101386.91;;;21.42;17.35
75063;BME280;63981;51.052;13.754;2023-03-01T13:46:10;101382.38;;;21.04;17.22
75063;BME280;63981;51.052;13.754;2023-03-01T13:48:38;101393.38;;;21.20;17.07
75063;BME280;63981;51.052;13.754;2023-03-01T13:51:08;101386.63;;;19.76;18.08
75063;BME280;63981;51.052;13.754;2023-03-01T13:53:37;101403.59;;;17.68;20.58
75063;BME280;63981;51.052;13.754;2023-03-01T13:56:12;101388.81;;;20.53;17.94
75063;BME280;63981;51.052;13.754;2023-03-01T13:59:18;101383.34;;;22.17;15.81
75063;BME280;63981;51.052;13.754;2023-03-01T14:01:52;101367.38;;;22.88;17.25
75063;BME280;63981;51.052;13.754;2023-03-01T14:04:32;101362.91;;;21.31;16.72
75063;BME280;63981;51.052;13.754;2023-03-01T14:07:18;101347.66;;;21.51;18.20
75063;BME280;63981;51.052;13.754;2023-03-01T14:09:46;101373.22;;;23.19;16.63
75063;BME280;63981;51.052;13.754;2023-03-01T14:22:45;101357.25;;;24.88;14.52
75063;BME280;63981;51.052;13.754;2023-03-01T14:26:12;101355.59;;;23.25;15.22
75063;BME280;63981;51.052;13.754;2023-03-01T14:28:17;101316.13;;;25.27;13.99
75063;BME280;63981;51.052;13.754;2023-03-01T14:30:45;101345.59;;;22.82;16.05
75063;BME280;63981;51.052;13.754;2023-03-01T14:35:58;101353.34;;;22.67;16.03
75063;BME280;63981;51.052;13.754;2023-03-01T14:38:45;101361.91;;;19.84;17.98
75063;BME280;63981;51.052;13.754;2023-03-01T14:41:17;101341.75;;;21.74;16.31
75063;BME280;63981;51.052;13.754;2023-03-01T14:43:46;101311.03;;;22.06;16.68